Time;durP1;ratioP1;P1;durP2;ratioP2;P2;SDS_P1;SDS_P2;PMS_P1;PMS_P2;Temp;Humidity;BMP_temperature;BMP_pressure;BME280_temperature;BME280_humidity;BME280_pressure;Samples;Min_cycle;Max_cycle;Signal;HPM_P1;HPM_P2
2022/01/30 00:02:04;;;;;;;1999.90;999.90;;;;;;;1.30;53.61;100906.00;4961496;28;99254;-71
2022/01/30 00:04:32;;;;;;;1999.90;999.90;;;;;;;1.27;53.42;100903.16;4973442;28;97779;-71
2022/01/30 00:07:00;;;;;;;1999.90;999.90;;;;;;;1.25;53.42;100925.78;4955046;28;98070;-72
2022/01/30 00:09:27;;;;;;;1999.90;999.90;;;;;;;1.25;53.76;100910.06;4960389;28;96933;-71
2022/01/30 00:12:00;;;;;;;1999.90;999.90;;;;;;;1.26;53.86;100937.16;4961077;28;98275;-72
2022/01/30 00:14:31;;;;;;;1999.90;999.90;;;;;;;1.23;54.28;100911.69;4957966;28;99078;-71
2022/01/30 00:17:05;;;;;;;1999.90;999.90;;;;;;;1.24;54.26;100921.34;4961608;28;98046;-72
2022/01/30 00:19:37;;;;;;;1999.90;999.90;;;;;;;1.25;54.90;100941.50;4964150;28;97229;-72
2022/01/30 00:22:17;;;;;;;1999.90;999.90;;;;;;;1.24;53.89;100934.44;4963326;28;97698;-73
2022/01/30 00:24:51;;;;;;;1999.90;999.90;;;;;;;1.20;53.59;100917.63;4959947;28;98114;-72
2022/01/30 00:27:27;;;;;;;1999.90;999.90;;;;;;;1.15;53.49;100924.31;4961789;28;98193;-71
2022/01/30 00:29:55;;;;;;;1999.90;999.90;;;;;;;1.14;54.58;101013.34;4946041;28;97856;-71
2022/01/30 00:32:23;;;;;;;1999.90;999.90;;;;;;;1.06;53.94;100943.81;4962905;28;98923;-71
2022/01/30 00:35:12;;;;;;;1999.90;999.90;;;;;;;0.95;53.33;100950.09;4943573;28;100838;-72
2022/01/30 00:37:42;;;;;;;1999.90;999.90;;;;;;;0.97;54.20;100923.19;4941651;28;100367;-72
2022/01/30 00:41:00;;;;;;;1999.90;999.90;;;;;;;1.13;53.01;100956.47;4425134;28;44395226;-72
2022/01/30 00:43:29;;;;;;;1999.90;999.90;;;;;;;0.99;54.31;100957.34;2416838;28;67785101;-71
2022/01/30 00:45:58;;;;;;;1999.90;999.90;;;;;;;0.85;55.25;100948.63;4956171;28;96965;-72
2022/01/30 00:48:27;;;;;;;1999.90;999.90;;;;;;;0.76;56.34;100979.47;4320445;28;18627004;-72
2022/01/30 00:50:55;;;;;;;1999.90;999.90;;;;;;;0.62;56.17;100951.50;4960782;28;98684;-71
2022/01/30 00:53:23;;;;;;;1999.90;999.90;;;;;;;0.43;56.65;100965.97;4960767;28;100829;-72
2022/01/30 00:55:50;;;;;;;1999.90;999.90;;;;;;;0.38;57.08;100983.06;4959304;28;100008;-72
2022/01/30 00:58:18;;;;;;;1999.90;999.90;;;;;;;0.32;56.81;100980.06;4962834;28;97577;-71
2022/01/30 01:00:47;;;;;;;1999.90;999.90;;;;;;;0.28;57.35;100991.13;4961231;28;97196;-71
2022/01/30 01:03:17;;;;;;;1999.90;999.90;;;;;;;0.25;57.39;100985.72;4963385;28;97128;-71
2022/01/30 01:05:45;;;;;;;1999.90;999.90;;;;;;;0.23;57.44;100976.00;4963016;28;100541;-72
2022/01/30 01:08:17;;;;;;;1999.90;999.90;;;;;;;0.25;57.01;100993.56;4960667;28;99011;-72
2022/01/30 01:10:49;;;;;;;1999.90;999.90;;;;;;;0.23;57.49;100970.75;4959380;28;97089;-71
2022/01/30 01:24:23;;;;;;;1999.90;999.90;;;;;;;0.32;57.23;100977.44;4961222;28;97900;-71
2022/01/30 01:26:50;;;;;;;1999.90;999.90;;;;;;;0.37;57.27;100978.66;4944322;28;97732;-71
2022/01/30 01:29:19;;;;;;;1999.90;999.90;;;;;;;0.38;56.61;100956.88;4961547;28;99256;-72
2022/01/30 01:31:48;;;;;;;1999.90;999.90;;;;;;;0.40;57.01;100961.41;4961303;28;97208;-71
2022/01/30 01:34:30;;;;;;;1999.90;999.90;;;;;;;0.41;56.69;100972.81;4959000;28;97629;-71
2022/01/30 01:36:58;;;;;;;1999.90;999.90;;;;;;;0.37;56.49;100968.19;4954280;28;99826;-70
2022/01/30 01:39:27;;;;;;;1999.90;999.90;;;;;;;0.41;57.38;100976.31;4959476;28;97592;-72
2022/01/30 01:41:54;;;;;;;1999.90;999.90;;;;;;;0.41;57.10;100959.72;4962351;28;97002;-72
2022/01/30 01:44:31;;;;;;;1999.90;999.90;;;;;;;0.43;56.85;100976.44;4963341;28;98015;-72
2022/01/30 01:47:01;;;;;;;1999.90;999.90;;;;;;;0.45;57.37;100959.13;4981101;28;97699;-72
2022/01/30 01:49:31;;;;;;;1999.90;999.90;;;;;;;0.40;56.91;100984.97;4966978;28;98443;-72
2022/01/30 01:52:18;;;;;;;1999.90;999.90;;;;;;;0.38;57.71;101010.16;4967828;28;97596;-71
2022/01/30 01:54:47;;;;;;;1999.90;999.90;;;;;;;0.16;59.38;100997.34;4983530;28;98876;-71
2022/01/30 01:57:15;;;;;;;1999.90;999.90;;;;;;;0.06;59.60;100994.91;4968106;28;98755;-71
2022/01/30 01:59:54;;;;;;;1999.90;999.90;;;;;;;-0.07;59.38;100976.63;4966032;28;97448;-71
2022/01/30 02:02:41;;;;;;;1999.90;999.90;;;;;;;-0.14;58.84;100971.78;4966655;28;97867;-71
2022/01/30 02:05:10;;;;;;;1999.90;999.90;;;;;;;-0.18;59.04;100969.75;4842238;28;3552386;-72
2022/01/30 02:10:30;;;;;;;1999.90;999.90;;;;;;;-0.29;59.30;100955.06;4947158;28;100713;-72
2022/01/30 02:13:11;;;;;;;1999.90;999.90;;;;;;;-0.33;59.55;100934.75;4945402;28;97400;-71
2022/01/30 02:23:56;;;;;;;1999.90;999.90;;;;;;;-0.36;59.28;100934.56;4945357;28;97432;-73
2022/01/30 02:24:19;;;;;;;1999.90;999.90;;;;;;;-0.36;59.20;100903.19;4946274;28;97405;-72
2022/01/30 02:26:48;;;;;;;1999.90;999.90;;;;;;;-0.35;58.94;100918.03;4960778;28;97314;-71
2022/01/30 02:29:18;;;;;;;1999.90;999.90;;;;;;;-0.11;58.01;100900.44;1620402;28;28622942;-71
2022/01/30 02:31:46;;;;;;;1999.90;999.90;;;;;;;-0.30;58.68;100884.38;4962976;28;97172;-72
2022/01/30 02:34:13;;;;;;;1999.90;999.90;;;;;;;-0.32;58.21;100899.94;4962076;28;97865;-71
2022/01/30 02:36:47;;;;;;;1999.90;999.90;;;;;;;-0.34;58.17;100867.59;4961565;28;98079;-71
2022/01/30 02:39:17;;;;;;;1999.90;999.90;;;;;;;-0.31;58.16;100865.16;4944387;28;97827;-71
2022/01/30 02:41:45;;;;;;;1999.90;999.90;;;;;;;-0.32;57.30;100894.72;4962288;28;97843;-70
2022/01/30 02:44:19;;;;;;;1999.90;999.90;;;;;;;-0.30;57.73;100874.81;4977743;28;98778;-71
2022/01/30 02:46:51;;;;;;;1999.90;999.90;;;;;;;-0.25;57.99;100909.09;4962300;28;97061;-72
2022/01/30 02:49:43;;;;;;;1999.90;999.90;;;;;;;-0.22;57.54;100922.38;4940140;28;100954;-71
2022/01/30 02:52:12;;;;;;;1999.90;999.90;;;;;;;-0.24;57.51;100845.53;4944338;28;100901;-70
2022/01/30 02:54:42;;;;;;;1999.90;999.90;;;;;;;-0.21;57.67;100854.47;4944338;28;98271;-71
2022/01/30 02:57:10;;;;;;;1999.90;999.90;;;;;;;-0.21;57.05;100872.78;4959136;28;97662;-72
2022/01/30 02:59:39;;;;;;;1999.90;999.90;;;;;;;-0.19;57.38;100855.50;4945142;28;99710;-72
2022/01/30 03:02:06;;;;;;;1999.90;999.90;;;;;;;-0.14;57.41;100858.41;4961839;28;98105;-71
2022/01/30 03:04:34;;;;;;;1999.90;999.90;;;;;;;-0.21;56.44;100942.50;4960605;28;98060;-72
2022/01/30 03:07:02;;;;;;;1999.90;999.90;;;;;;;-0.17;56.93;100874.81;4942751;28;97521;-72
2022/01/30 03:09:42;;;;;;;1999.90;999.90;;;;;;;-0.15;56.48;100893.19;4959329;28;99577;-72
2022/01/30 03:12:11;;;;;;;1999.90;999.90;;;;;;;-0.12;56.80;100917.84;4959896;28;99314;-71
2022/01/30 03:14:38;;;;;;;1999.90;999.90;;;;;;;-0.12;56.90;100894.31;4943728;28;96959;-72
2022/01/30 03:17:06;;;;;;;1999.90;999.90;;;;;;;-0.09;56.87;100888.38;4942738;28;98023;-70
2022/01/30 03:19:34;;;;;;;1999.90;999.90;;;;;;;-0.04;56.77;100913.13;4942371;28;97729;-71
2022/01/30 03:22:02;;;;;;;1999.90;999.90;;;;;;;-0.05;56.66;100893.00;4957510;28;98906;-71
2022/01/30 03:24:34;;;;;;;1999.90;999.90;;;;;;;-0.03;56.57;100905.38;4959595;28;97199;-72
2022/01/30 03:27:13;;;;;;;1999.90;999.90;;;;;;;-0.03;56.22;100926.28;4959376;28;98058;-72
2022/01/30 03:29:50;;;;;;;1999.90;999.90;;;;;;;0.02;56.45;100903.97;4958836;28;97719;-71
2022/01/30 03:32:32;;;;;;;1999.90;999.90;;;;;;;0.05;56.53;100918.94;4974038;28;100827;-72
2022/01/30 03:34:59;;;;;;;1999.90;999.90;;;;;;;0.10;56.96;100918.44;4960154;28;97204;-71
2022/01/30 03:37:27;;;;;;;1999.90;999.90;;;;;;;0.09;56.36;100921.88;4960005;28;98160;-72
2022/01/30 03:39:55;;;;;;;1999.90;999.90;;;;;;;0.13;56.57;100912.50;4959771;28;98929;-71
2022/01/30 03:42:24;;;;;;;1999.90;999.90;;;;;;;0.10;55.51;100944.59;4958890;28;98087;-71
2022/01/30 03:44:52;;;;;;;1999.90;999.90;;;;;;;0.15;56.24;100916.13;4960670;28;97225;-72
2022/01/30 03:47:24;;;;;;;1999.90;999.90;;;;;;;0.13;56.24;100902.97;4943809;28;96779;-71
2022/01/30 03:49:54;;;;;;;1999.90;999.90;;;;;;;0.13;55.28;100905.56;4945192;28;99616;-71
2022/01/30 03:52:22;;;;;;;1999.90;999.90;;;;;;;0.16;56.17;100939.78;4942169;28;100814;-71
2022/01/30 03:54:49;;;;;;;1999.90;999.90;;;;;;;0.20;56.24;100941.78;4959256;28;98376;-71
2022/01/30 03:57:17;;;;;;;1999.90;999.90;;;;;;;0.18;56.14;100919.84;4943872;28;97550;-72
2022/01/30 03:59:46;;;;;;;1999.90;999.90;;;;;;;0.17;56.51;100957.28;4943973;28;97360;-71
2022/01/30 04:02:14;;;;;;;1999.90;999.90;;;;;;;0.13;56.46;100977.91;4959717;28;98387;-70
2022/01/30 04:04:42;;;;;;;1999.90;999.90;;;;;;;0.13;56.83;100957.91;4958873;28;100794;-70
2022/01/30 04:07:12;;;;;;;1999.90;999.90;;;;;;;-150.31;100.00;55401.22;3196676;28;23447579;-71
2022/01/30 04:12:35;;;;;;;;;;;;;;;0.13;56.83;100957.91;236860;28;91540433;-71
2022/01/30 04:15:28;;;;;;;1999.90;999.90;;;;;;;0.13;56.83;100957.91;4960133;28;97207;-70
2022/01/30 04:21:05;;;;;;;;;;;;;;;-151.59;100.00;55400.94;170791;28;91539191;-71
2022/01/30 04:26:43;;;;;;;;;;;;;;;-151.59;100.00;55400.94;3;82532057;91536712;-71
2022/01/30 04:32:27;;;;;;;;;;;;;;;-151.59;100.00;55400.94;3;82532349;82534974;-70
2022/01/30 04:38:14;;;;;;;;;;;;;;;-151.59;100.00;55400.94;3;82535315;91469196;-71
2022/01/30 05:01:52;;;;;;;;;;;;;;;-151.59;100.00;55400.94;3;82536222;91540820;-70
2022/01/30 05:07:38;;;;;;;;;;;;;;;-151.59;nan;55400.94;3;91537398;91539324;-71
2022/01/30 05:13:50;;;;;;;1999.90;999.90;;;;;;;-151.59;100.00;55400.94;2907790;28;91539623;-71
2022/01/30 05:20:20;;;;;;;1999.90;999.90;;;;;;;-151.59;100.00;55400.94;695758;28;91539055;-72
2022/01/30 05:25:57;;;;;;;;;;;;;;;-151.59;100.00;55400.94;3;82535536;91537270;-71
2022/01/30 05:28:25;;;;;;;1999.90;999.90;;;;;;;-0.31;57.35;100969.75;1550210;28;82534230;-71
2022/01/30 05:31:07;;;;;;;1999.90;999.90;;;;;;;-0.48;58.09;100967.69;4957088;28;97208;-71
2022/01/30 05:33:41;;;;;;;1999.90;999.90;;;;;;;-0.56;58.16;100954.91;4938148;28;96880;-72
2022/01/30 05:36:27;;;;;;;1999.90;999.90;;;;;;;-0.70;58.86;100971.38;4974352;28;97738;-73
2022/01/30 05:39:15;;;;;;;1999.90;999.90;;;;;;;-0.73;58.66;100966.81;4963673;28;101839;-72
2022/01/30 05:42:00;;;;;;;1999.90;999.90;;;;;;;-0.77;58.72;100959.56;4948073;28;98048;-71
2022/01/30 05:44:58;;;;;;;1999.90;999.90;;;;;;;-0.86;59.17;100957.25;4966095;28;97523;-72
2022/01/30 05:47:45;;;;;;;1999.90;999.90;;;;;;;-0.89;58.95;100974.41;4950642;28;99861;-72
2022/01/30 05:50:21;;;;;;;1999.90;999.90;;;;;;;-0.91;59.40;100978.63;4963874;28;99518;-72
2022/01/30 05:53:02;;;;;;;1999.90;999.90;;;;;;;-0.88;59.04;100984.03;4900110;28;1313345;-72
2022/01/30 05:58:27;;;;;;;;;;;;;;;-151.59;100.00;55400.94;2725495;28;82535199;-70
2022/01/30 06:03:57;;;;;;;;;;;;;;;-151.59;100.00;55400.94;3;82535835;91537803;-73
2022/01/30 06:09:24;;;;;;;;;;;;;;;-151.59;100.00;55400.94;3;91536836;91540580;-72
2022/01/30 06:14:54;;;;;;;;;;;;;;;-151.59;100.00;55400.94;3;82534913;91541833;-72
2022/01/30 06:20:15;;;;;;;;;;;;;;;-151.59;100.00;55400.94;3;84033721;84035143;-72
2022/01/30 06:25:52;;;;;;;;;;;;;;;-151.59;100.00;55400.94;3;82533086;91541436;-71
2022/01/30 06:31:58;;;;;;;;;;;;;;;-151.59;100.00;55400.94;3;91540359;91541672;-69
2022/01/30 06:37:43;;;;;;;;;;;;;;;-151.59;100.00;55400.94;3;82538186;91540521;-70
2022/01/30 06:43:29;;;;;;;;;;;;;;;-151.59;100.00;55400.94;3;82534558;82534908;-71
2022/01/30 06:49:07;;;;;;;;;;;;;;;-151.59;100.00;55400.94;3;82531539;91543707;-71
2022/01/30 06:54:53;;;;;;;;;;;;;;;-151.59;100.00;55400.94;3;91534173;91535849;-71
2022/01/30 07:00:58;;;;;;;;;;;;;;;-151.59;100.00;55400.94;3;82530292;91535541;-72
2022/01/30 07:06:41;;;;;;;;;;;;;;;-151.59;100.00;55400.94;3;82532616;82533509;-72
2022/01/30 07:11:58;;;;;;;;;;;;;;;-151.59;100.00;55400.94;3;82535292;91536231;-71
2022/01/30 07:17:27;;;;;;;;;;;;;;;-151.59;100.00;55400.94;3;91538341;91539044;-71
2022/01/30 07:22:56;;;;;;;;;;;;;;;-151.59;100.00;55400.94;3;84032507;91540567;-70
2022/01/30 07:28:14;;;;;;;;;;;;;;;-151.59;100.00;55400.94;3;82533268;82533846;-71
2022/01/30 07:33:33;;;;;;;;;;;;;;;-151.59;100.00;55400.94;3;82533361;91536764;-72
2022/01/30 07:39:01;;;;;;;;;;;;;;;-151.59;100.00;55400.94;3;91537113;91537613;-72
2022/01/30 07:44:28;;;;;;;;;;;;;;;-151.59;100.00;55400.94;3;82536250;91537540;-71
2022/01/30 07:49:51;;;;;;;;;;;;;;;-151.59;100.00;55400.94;3;82533162;82535526;-70
2022/01/30 07:53:19;;;;;;;;;;;;;;;-0.11;52.62;101191.66;3;82537237;91541031;-71
2022/01/30 07:59:23;;;;;;;;;;;;;;;-151.59;100.00;55400.94;1196140;28;91540114;-70
2022/01/30 08:04:41;;;;;;;;;;;;;;;-151.59;100.00;55400.94;3;82534224;82537273;-70
2022/01/30 08:10:02;;;;;;;;;;;;;;;-151.59;100.00;55400.94;3;84030977;91538301;-71
2022/01/30 08:15:30;;;;;;;;;;;;;;;-151.59;100.00;55400.94;3;91536415;91536832;-71
2022/01/30 08:20:57;;;;;;;;;;;;;;;-151.59;100.00;55400.94;3;82530872;91538066;-70
2022/01/30 08:26:15;;;;;;;;;;;;;;;-151.59;100.00;55400.94;3;82533045;82534327;-70
2022/01/30 08:31:34;;;;;;;;;;;;;;;-151.59;100.00;55400.94;3;82533773;91538285;-71
2022/01/30 08:37:01;;;;;;;;;;;;;;;-151.59;100.00;55400.94;3;91535762;91539669;-71
2022/01/30 08:42:28;;;;;;;;;;;;;;;-151.59;100.00;55400.94;3;82533231;91540616;-70
2022/01/30 08:47:48;;;;;;;;;;;;;;;-151.59;100.00;55400.94;3;82534736;82537846;-71
2022/01/30 08:53:06;;;;;;;;;;;;;;;-151.59;100.00;55400.94;3;82533467;91539464;-71
2022/01/30 08:58:33;;;;;;;;;;;;;;;-151.59;100.00;55400.94;3;91537527;91540051;-70
2022/01/30 09:04:03;;;;;;;;;;;;;;;-151.59;100.00;55400.94;3;82541628;91544822;-72
2022/01/30 09:09:21;;;;;;;;;;;;;;;-151.59;100.00;55400.94;3;82529763;82534804;-70
2022/01/30 09:14:40;;;;;;;;;;;;;;;-151.59;100.00;55400.94;3;82539605;91538460;-71
2022/01/30 09:20:09;;;;;;;;;;;;;;;-151.59;100.00;55400.94;3;91534514;91536664;-70
2022/01/30 09:25:36;;;;;;;;;;;;;;;-151.59;100.00;55400.94;3;82536699;91539736;-72
2022/01/30 09:30:54;;;;;;;;;;;;;;;-151.59;100.00;55400.94;3;82535113;82538150;-71
2022/01/30 09:36:13;;;;;;;;;;;;;;;-151.59;100.00;55400.94;3;82537046;91540682;-70
2022/01/30 09:41:45;;;;;;;;;;;;;;;-151.59;100.00;55400.94;3;91544795;91546363;-70
2022/01/30 09:47:12;;;;;;;;;;;;;;;-151.59;100.00;55400.94;3;82538126;91537318;-71
2022/01/30 09:52:32;;;;;;;;;;;;;;;-151.59;100.00;55400.94;3;82539975;82541778;-72
2022/01/30 09:56:58;;;;;;;;;;;;;;;-0.11;52.62;101191.66;3;84036274;91547295;-72
2022/01/30 09:59:25;;;;;;;1999.90;999.90;;;;;;;0.21;50.98;101338.72;4948972;28;99286;-71
2022/01/30 10:01:53;;;;;;;1999.90;999.90;;;;;;;0.18;52.53;101351.59;4952005;28;98663;-72
2022/01/30 10:04:21;;;;;;;1999.90;999.90;;;;;;;0.23;52.79;101349.28;4947680;28;98757;-72
2022/01/30 10:06:59;;;;;;;1999.90;999.90;;;;;;;0.17;51.65;101355.00;4952068;28;96987;-75
2022/01/30 10:09:31;;;;;;;1999.90;999.90;;;;;;;0.20;52.33;101355.25;4960147;28;97631;-74
2022/01/30 10:12:14;;;;;;;1999.90;999.90;;;;;;;0.17;49.33;101359.34;4960686;28;97724;-72
2022/01/30 10:14:55;;;;;;;1999.90;999.90;;;;;;;0.24;51.86;101385.19;4958403;28;97405;-74
2022/01/30 10:17:25;;;;;;;1999.90;999.90;;;;;;;0.27;52.17;101363.53;4957929;28;96722;-74
2022/01/30 10:20:06;;;;;;;1999.90;999.90;;;;;;;0.30;52.68;101387.34;4960491;28;98028;-74
2022/01/30 10:22:36;;;;;;;1999.90;999.90;;;;;;;0.25;51.00;101402.69;4958376;28;99016;-74
2022/01/30 10:25:06;;;;;;;1999.90;999.90;;;;;;;0.23;51.50;101376.38;4959310;28;97348;-73
2022/01/30 10:27:35;;;;;;;1999.90;999.90;;;;;;;0.27;52.46;101397.56;4960072;28;97737;-74
2022/01/30 10:30:06;;;;;;;1999.90;999.90;;;;;;;0.26;51.25;101369.59;4958715;28;98286;-74
2022/01/30 10:32:34;;;;;;;1999.90;999.90;;;;;;;0.27;51.58;101397.56;4961098;28;98903;-73
2022/01/30 10:35:04;;;;;;;1999.90;999.90;;;;;;;0.32;52.17;101406.69;4961856;28;97200;-74
2022/01/30 10:37:35;;;;;;;1999.90;999.90;;;;;;;0.31;51.55;101386.53;4946978;28;97990;-73
2022/01/30 10:40:10;;;;;;;1999.90;999.90;;;;;;;0.26;48.77;101385.28;4963005;28;99176;-72
2022/01/30 10:42:41;;;;;;;1999.90;999.90;;;;;;;0.36;51.93;101398.25;4960492;28;99006;-73
2022/01/30 10:45:12;;;;;;;1999.90;999.90;;;;;;;0.42;52.17;101382.97;4961268;28;97051;-73
2022/01/30 10:47:41;;;;;;;1999.90;999.90;;;;;;;0.42;51.65;101393.44;4958124;28;97824;-73
2022/01/30 10:50:12;;;;;;;1999.90;999.90;;;;;;;0.44;51.55;101391.84;4960231;28;100258;-73
2022/01/30 10:52:56;;;;;;;1999.90;999.90;;;;;;;0.46;50.92;101392.84;4959297;28;97890;-74
2022/01/30 10:55:40;;;;;;;1999.90;999.90;;;;;;;0.43;49.10;101400.50;4960897;28;96865;-74
2022/01/30 10:58:10;;;;;;;1999.90;999.90;;;;;;;0.39;47.92;101398.47;4961692;28;97578;-74
2022/01/30 11:00:48;;;;;;;1999.90;999.90;;;;;;;0.42;50.28;101403.91;4960278;28;97876;-74
2022/01/30 11:03:44;;;;;;;1999.90;999.90;;;;;;;0.28;45.64;101408.16;4963149;28;97818;-74
2022/01/30 11:06:14;;;;;;;1999.90;999.90;;;;;;;0.48;51.02;101401.72;4940305;28;97249;-74
2022/01/30 11:08:47;;;;;;;1999.90;999.90;;;;;;;0.50;50.91;101389.66;4977673;28;97756;-73
2022/01/30 11:11:30;;;;;;;1999.90;999.90;;;;;;;0.52;50.41;101409.00;4960159;28;98976;-71
2022/01/30 11:14:15;;;;;;;1999.90;999.90;;;;;;;0.52;49.93;101420.38;4959764;28;97592;-74
2022/01/30 11:19:29;;;;;;;1999.90;999.90;;;;;;;0.62;51.52;101408.84;4962722;28;96768;-71
2022/01/30 11:22:00;;;;;;;1999.90;999.90;;;;;;;0.62;50.99;101429.78;4959787;28;97143;-74
2022/01/30 11:24:29;;;;;;;1999.90;999.90;;;;;;;0.62;51.47;101420.25;4959006;28;101176;-72
2022/01/30 11:26:58;;;;;;;1999.90;999.90;;;;;;;0.63;51.31;101411.56;4960832;28;97842;-71
2022/01/30 11:29:26;;;;;;;1999.90;999.90;;;;;;;0.63;50.86;101408.94;4960812;28;97197;-73
2022/01/30 11:31:53;;;;;;;1999.90;999.90;;;;;;;0.61;50.36;101425.38;4959282;28;98097;-73
2022/01/30 11:34:22;;;;;;;1999.90;999.90;;;;;;;0.61;51.05;101418.41;4960701;28;98286;-73
2022/01/30 11:36:50;;;;;;;1999.90;999.90;;;;;;;0.65;51.78;101419.56;4958848;28;97409;-73
2022/01/30 11:39:19;;;;;;;1999.90;999.90;;;;;;;0.66;50.95;101410.88;4959392;28;96802;-72
2022/01/30 11:42:09;;;;;;;1999.90;999.90;;;;;;;0.64;48.92;101412.47;4959597;28;98655;-73
2022/01/30 11:44:38;;;;;;;1999.90;999.90;;;;;;;0.70;50.46;101407.69;4957531;28;98325;-73
2022/01/30 11:47:19;;;;;;;1999.90;999.90;;;;;;;0.73;49.22;101429.75;4935086;28;801521;-71
2022/01/30 11:49:50;;;;;;;1999.90;999.90;;;;;;;0.72;50.40;101421.81;4959708;28;97312;-73
2022/01/30 11:52:19;;;;;;;1999.90;999.90;;;;;;;0.70;50.51;101424.31;4960490;28;97456;-73
2022/01/30 11:54:49;;;;;;;1999.90;999.90;;;;;;;0.74;50.72;101430.69;4960338;28;96844;-72
2022/01/30 11:57:47;;;;;;;1999.90;999.90;;;;;;;0.73;48.49;101439.31;4957971;28;98320;-72
2022/01/30 12:00:36;;;;;;;1999.90;999.90;;;;;;;0.56;45.13;101445.97;4959094;28;97063;-72
2022/01/30 12:03:26;;;;;;;1999.90;999.90;;;;;;;0.67;47.79;101425.78;4963079;28;98764;-72
2022/01/30 12:05:57;;;;;;;1999.90;999.90;;;;;;;0.72;50.18;101430.53;4956980;28;99340;-73
2022/01/30 12:08:45;;;;;;;1999.90;999.90;;;;;;;0.64;46.35;101436.97;4959875;28;96969;-72
2022/01/30 12:11:51;;;;;;;1999.90;999.90;;;;;;;0.71;47.44;101440.91;4963702;28;96595;-72
2022/01/30 12:14:54;;;;;;;1999.90;999.90;;;;;;;0.78;48.98;101437.91;4966598;28;98717;-72
2022/01/30 12:17:58;;;;;;;1999.90;999.90;;;;;;;0.79;46.58;101439.75;4962785;28;98139;-72
2022/01/30 12:20:30;;;;;;;1999.90;999.90;;;;;;;0.83;49.67;101445.31;4964467;28;97542;-74
2022/01/30 12:22:58;;;;;;;1999.90;999.90;;;;;;;0.68;45.86;101474.75;4962695;28;97535;-73
2022/01/30 12:25:36;;;;;;;1999.90;999.90;;;;;;;0.63;46.52;101439.50;4960834;28;97106;-72
2022/01/30 12:28:07;;;;;;;1999.90;999.90;;;;;;;0.77;49.98;101451.84;4958590;28;99448;-73
2022/01/30 12:30:41;;;;;;;1999.90;999.90;;;;;;;0.65;46.62;101441.38;4940346;28;96901;-73
2022/01/30 12:33:42;;;;;;;1999.90;999.90;;;;;;;0.59;45.11;101455.78;4966159;28;96643;-73
2022/01/30 12:36:22;;;;;;;1999.90;999.90;;;;;;;0.70;49.35;101450.50;4972912;28;97640;-72
2022/01/30 12:38:55;;;;;;;1999.90;999.90;;;;;;;0.72;48.69;101453.22;4970886;28;99441;-73
2022/01/30 12:41:25;;;;;;;1999.90;999.90;;;;;;;0.55;44.88;101443.25;4971189;28;96857;-73
2022/01/30 12:44:00;;;;;;;1999.90;999.90;;;;;;;0.70;49.33;101470.53;4968745;28;96658;-73
2022/01/30 12:46:34;;;;;;;1999.90;999.90;;;;;;;0.73;49.79;101449.78;4968215;28;97896;-72
2022/01/30 12:49:11;;;;;;;1999.90;999.90;;;;;;;0.76;50.32;101463.09;4962344;28;97458;-72
2022/01/30 12:51:41;;;;;;;1999.90;999.90;;;;;;;0.79;50.78;101445.91;4958855;28;97266;-72
2022/01/30 12:54:10;;;;;;;1999.90;999.90;;;;;;;0.84;50.27;101454.09;4959555;28;97498;-71
2022/01/30 12:56:39;;;;;;;1999.90;999.90;;;;;;;0.85;49.83;101455.91;4958720;28;97854;-73
2022/01/30 12:59:07;;;;;;;1999.90;999.90;;;;;;;0.82;49.46;101442.59;4955348;28;100519;-73
2022/01/30 13:01:39;;;;;;;1999.90;999.90;;;;;;;0.80;48.54;101444.19;4954864;28;96818;-72
2022/01/30 13:04:10;;;;;;;1999.90;999.90;;;;;;;0.82;49.46;101445.19;4956439;28;97724;-73
2022/01/30 13:06:41;;;;;;;1999.90;999.90;;;;;;;0.84;49.65;101444.53;4956950;28;97964;-74
2022/01/30 13:09:10;;;;;;;1999.90;999.90;;;;;;;0.88;49.78;101448.25;4973263;28;99398;-72
2022/01/30 13:11:38;;;;;;;1999.90;999.90;;;;;;;0.81;49.18;101452.16;4957243;28;98278;-73
2022/01/30 13:14:08;;;;;;;1999.90;999.90;;;;;;;0.81;47.86;101453.88;4957118;28;98362;-73
2022/01/30 13:16:38;;;;;;;1999.90;999.90;;;;;;;0.83;48.96;101453.16;4954405;28;100554;-73
2022/01/30 13:19:08;;;;;;;1999.90;999.90;;;;;;;0.83;48.89;101473.25;4954510;28;99202;-72
2022/01/30 13:21:37;;;;;;;1999.90;999.90;;;;;;;0.85;49.55;101461.16;4971024;28;96967;-71
2022/01/30 13:24:07;;;;;;;1999.90;999.90;;;;;;;0.86;49.13;101483.91;4955981;28;97003;-72
2022/01/30 13:26:40;;;;;;;1999.90;999.90;;;;;;;0.73;45.70;101481.22;4939211;28;99358;-71
2022/01/30 13:29:14;;;;;;;1999.90;999.90;;;;;;;0.85;49.09;101472.53;4957842;28;98207;-72
2022/01/30 13:31:42;;;;;;;1999.90;999.90;;;;;;;0.86;49.37;101494.41;4957718;28;97733;-71
2022/01/30 13:34:16;;;;;;;1999.90;999.90;;;;;;;0.80;48.05;101486.09;4955664;28;97402;-72
2022/01/30 13:36:53;;;;;;;1999.90;999.90;;;;;;;0.83;49.13;101504.69;4955150;28;99609;-72
2022/01/30 13:39:31;;;;;;;1999.90;999.90;;;;;;;0.78;48.44;101496.47;4970966;28;98885;-72
2022/01/30 13:46:53;;;;;;;1999.90;999.90;;;;;;;0.81;48.77;101503.66;4964333;28;99097;-72
2022/01/30 13:47:53;;;;;;;1999.90;999.90;;;;;;;0.82;48.83;101508.06;4953834;28;99805;-73
2022/01/30 13:50:22;;;;;;;1999.90;999.90;;;;;;;0.82;48.40;101482.78;4939888;28;98429;-71
2022/01/30 13:53:00;;;;;;;1999.90;999.90;;;;;;;0.79;48.23;101521.88;4963681;28;97254;-72
2022/01/30 13:55:29;;;;;;;1999.90;999.90;;;;;;;0.79;48.63;101502.63;4956812;28;98761;-71
2022/01/30 13:57:58;;;;;;;1999.90;999.90;;;;;;;0.80;48.71;101504.44;4942423;28;99576;-72
2022/01/30 14:00:29;;;;;;;1999.90;999.90;;;;;;;0.74;48.30;101517.13;4955627;28;98036;-72
2022/01/30 14:02:59;;;;;;;1999.90;999.90;;;;;;;0.65;46.35;101516.44;4960896;28;96736;-73
2022/01/30 14:05:32;;;;;;;1999.90;999.90;;;;;;;0.72;48.41;101547.53;4959258;28;97138;-72
2022/01/30 14:08:02;;;;;;;1999.90;999.90;;;;;;;0.65;47.25;101530.44;4957714;28;98008;-71
2022/01/30 14:10:33;;;;;;;1999.90;999.90;;;;;;;0.70;49.28;101536.03;4959324;28;98240;-72
2022/01/30 14:13:03;;;;;;;1999.90;999.90;;;;;;;0.72;49.07;101542.28;4956731;28;98190;-71
2022/01/30 14:15:34;;;;;;;1999.90;999.90;;;;;;;0.71;48.37;101556.16;4953947;28;98891;-71
2022/01/30 14:18:13;;;;;;;1999.90;999.90;;;;;;;0.70;48.19;101543.88;4953915;28;98163;-71
2022/01/30 14:20:42;;;;;;;1999.90;999.90;;;;;;;0.67;48.38;101539.31;4954413;28;99592;-71
2022/01/30 14:23:12;;;;;;;1999.90;999.90;;;;;;;0.67;49.13;101543.63;4955297;28;98379;-73
2022/01/30 14:25:42;;;;;;;1999.90;999.90;;;;;;;0.64;48.76;101557.44;4955369;28;98839;-73
2022/01/30 14:28:24;;;;;;;1999.90;999.90;;;;;;;0.63;48.54;101558.22;4956603;28;98454;-73
2022/01/30 14:30:52;;;;;;;1999.90;999.90;;;;;;;0.62;48.52;101565.97;4959608;28;98234;-73
2022/01/30 14:33:21;;;;;;;1999.90;999.90;;;;;;;0.60;48.60;101576.34;4961501;28;99287;-72
2022/01/30 14:35:49;;;;;;;1999.90;999.90;;;;;;;0.56;48.54;101561.19;4957176;28;97470;-72
2022/01/30 14:38:16;;;;;;;1999.90;999.90;;;;;;;0.55;48.84;101561.09;4942015;28;99682;-72
2022/01/30 14:40:48;;;;;;;1999.90;999.90;;;;;;;0.55;48.44;101567.25;4957716;28;99150;-73
2022/01/30 14:43:16;;;;;;;1999.90;999.90;;;;;;;0.51;48.56;101574.75;4956590;28;96858;-73
2022/01/30 14:45:45;;;;;;;1999.90;999.90;;;;;;;0.52;48.26;101569.63;4957486;28;99468;-73
2022/01/30 14:48:13;;;;;;;1999.90;999.90;;;;;;;0.56;48.97;101586.50;4972562;28;99611;-73
2022/01/30 14:50:45;;;;;;;1999.90;999.90;;;;;;;0.55;48.75;101574.19;4952540;28;99303;-73
2022/01/30 14:53:13;;;;;;;1999.90;999.90;;;;;;;0.54;48.87;101585.47;4958494;28;98272;-72
2022/01/30 14:55:41;;;;;;;1999.90;999.90;;;;;;;0.52;48.66;101577.47;4957878;28;97026;-73